Belleville, Michigan
Current Conditions -  °F | °C
As of 10:53 PM on Saturday 25 Oct 2014 (Local Time) from KYIP Reporting Station
Clear Clear  
Wind Chill: 57°   Ceiling: Unl
Heat Index: 57°   Visibility: 10mi
Dew Point: 32°   Wind: 10mph
Humidity: 39%   Direction: 280°W
Pressure: 29.83"   Gusts: NA
Location:  42.2°N, 83.48°W
Report Text: KYIP 260253Z AUTO 28009KT 10SM CLR 14/00 A2983 RMK AO2 SLP096 T01390000 51010 TSNO $
Loading
Personal Weather Stations






























Interactive Weather Map
Tropical Storm Tracking
New forecast layout! Learn more

10-Day Weather Forecast

Advertisements
Track Severe Weather on mobile